sensor_id;sensor_type;location;lat;lon;timestamp;pressure;altitude;pressure_sealevel;temperature;humidity
11678;BME280;5895;41.950;24.372;2022-10-22T00:01:09;87564.09;;;4.77;50.85
11678;BME280;5895;41.950;24.372;2022-10-22T00:03:36;87568.59;;;4.75;51.02
11678;BME280;5895;41.950;24.372;2022-10-22T00:06:03;87568.31;;;4.70;51.09
11678;BME280;5895;41.950;24.372;2022-10-22T00:08:32;87560.31;;;4.65;51.42
11678;BME280;5895;41.950;24.372;2022-10-22T00:11:07;87558.28;;;4.61;53.53
11678;BME280;5895;41.950;24.372;2022-10-22T00:13:34;87547.56;;;4.57;50.79
11678;BME280;5895;41.950;24.372;2022-10-22T00:16:01;87545.97;;;4.56;50.87
11678;BME280;5895;41.950;24.372;2022-10-22T00:18:28;87548.25;;;4.51;50.72
11678;BME280;5895;41.950;24.372;2022-10-22T00:20:55;87543.63;;;4.46;50.77
11678;BME280;5895;41.950;24.372;2022-10-22T00:23:22;87542.56;;;4.41;51.08
11678;BME280;5895;41.950;24.372;2022-10-22T00:25:51;87546.44;;;4.37;51.91
11678;BME280;5895;41.950;24.372;2022-10-22T00:28:19;87548.09;;;4.30;50.84
11678;BME280;5895;41.950;24.372;2022-10-22T00:30:46;87545.44;;;4.23;50.73
11678;BME280;5895;41.950;24.372;2022-10-22T00:33:13;87539.22;;;4.17;50.78
11678;BME280;5895;41.950;24.372;2022-10-22T00:35:40;87549.50;;;4.17;50.80
11678;BME280;5895;41.950;24.372;2022-10-22T00:38:09;87548.88;;;4.15;51.11
11678;BME280;5895;41.950;24.372;2022-10-22T00:40:36;87546.31;;;4.15;51.18
11678;BME280;5895;41.950;24.372;2022-10-22T00:43:05;87542.59;;;4.18;51.98
11678;BME280;5895;41.950;24.372;2022-10-22T00:45:32;87549.97;;;4.21;51.69
11678;BME280;5895;41.950;24.372;2022-10-22T00:48:01;87544.00;;;4.20;52.44
11678;BME280;5895;41.950;24.372;2022-10-22T00:50:33;87542.41;;;4.19;53.16
11678;BME280;5895;41.950;24.372;2022-10-22T00:53:02;87537.28;;;4.19;52.07
11678;BME280;5895;41.950;24.372;2022-10-22T00:55:31;87539.50;;;4.22;52.57
11678;BME280;5895;41.950;24.372;2022-10-22T00:57:59;87541.09;;;4.23;52.08
11678;BME280;5895;41.950;24.372;2022-10-22T01:00:28;87539.16;;;4.25;52.75
11678;BME280;5895;41.950;24.372;2022-10-22T01:02:56;87533.84;;;4.27;52.12
11678;BME280;5895;41.950;24.372;2022-10-22T01:05:25;87531.09;;;4.29;53.60
11678;BME280;5895;41.950;24.372;2022-10-22T01:07:53;87532.09;;;4.28;51.85
11678;BME280;5895;41.950;24.372;2022-10-22T01:10:37;87534.28;;;4.31;54.73
11678;BME280;5895;41.950;24.372;2022-10-22T01:13:16;87530.94;;;4.30;56.32
11678;BME280;5895;41.950;24.372;2022-10-22T01:15:55;87530.94;;;4.30;55.99
11678;BME280;5895;41.950;24.372;2022-10-22T01:18:31;87532.09;;;4.28;55.27
11678;BME280;5895;41.950;24.372;2022-10-22T01:21:09;87537.56;;;4.24;55.15
11678;BME280;5895;41.950;24.372;2022-10-22T01:27:19;87522.50;;;4.21;60.47
11678;BME280;5895;41.950;24.372;2022-10-22T01:29:53;87519.75;;;4.23;54.27
11678;BME280;5895;41.950;24.372;2022-10-22T01:32:25;87528.88;;;4.25;53.34
11678;BME280;5895;41.950;24.372;2022-10-22T01:34:57;87526.75;;;4.29;54.40
11678;BME280;5895;41.950;24.372;2022-10-22T01:37:28;87523.41;;;4.29;53.40
11678;BME280;5895;41.950;24.372;2022-10-22T01:39:56;87525.00;;;4.30;52.36
11678;BME280;5895;41.950;24.372;2022-10-22T01:42:25;87525.00;;;4.30;52.63
11678;BME280;5895;41.950;24.372;2022-10-22T01:44:54;87520.22;;;4.27;52.95
11678;BME280;5895;41.950;24.372;2022-10-22T01:47:28;87524.19;;;4.29;54.71
11678;BME280;5895;41.950;24.372;2022-10-22T01:50:14;87521.00;;;4.27;56.84
11678;BME280;5895;41.950;24.372;2022-10-22T01:52:56;87509.94;;;4.27;56.15
11678;BME280;5895;41.950;24.372;2022-10-22T01:55:30;87521.34;;;4.24;53.59
11678;BME280;5895;41.950;24.372;2022-10-22T01:58:12;87512.22;;;4.21;56.57
11678;BME280;5895;41.950;24.372;2022-10-22T02:00:49;87515.94;;;4.19;54.77
11678;BME280;5895;41.950;24.372;2022-10-22T02:03:23;87517.09;;;4.16;53.78
11678;BME280;5895;41.950;24.372;2022-10-22T02:05:54;87524.22;;;4.06;53.34
11678;BME280;5895;41.950;24.372;2022-10-22T02:08:24;87515.91;;;4.04;53.06
11678;BME280;5895;41.950;24.372;2022-10-22T02:10:53;87517.22;;;4.00;52.62
11678;BME280;5895;41.950;24.372;2022-10-22T02:13:24;87530.22;;;3.98;53.68
11678;BME280;5895;41.950;24.372;2022-10-22T02:15:54;87524.91;;;4.00;53.98
11678;BME280;5895;41.950;24.372;2022-10-22T02:18:27;87522.00;;;4.03;54.39
11678;BME280;5895;41.950;24.372;2022-10-22T02:20:57;87526.97;;;4.05;52.93
11678;BME280;5895;41.950;24.372;2022-10-22T02:23:25;87528.75;;;4.04;53.14
11678;BME280;5895;41.950;24.372;2022-10-22T02:25:58;87525.81;;;4.07;53.31
11678;BME280;5895;41.950;24.372;2022-10-22T02:28:33;87526.63;;;4.08;55.82
11678;BME280;5895;41.950;24.372;2022-10-22T02:31:09;87516.53;;;4.06;55.02
11678;BME280;5895;41.950;24.372;2022-10-22T02:33:42;87515.22;;;4.10;53.50
11678;BME280;5895;41.950;24.372;2022-10-22T02:36:11;87518.72;;;4.09;52.98
11678;BME280;5895;41.950;24.372;2022-10-22T02:38:39;87515.22;;;4.10;53.41
11678;BME280;5895;41.950;24.372;2022-10-22T02:41:08;87530.25;;;4.13;53.25
11678;BME280;5895;41.950;24.372;2022-10-22T02:43:39;87530.25;;;4.13;55.01
11678;BME280;5895;41.950;24.372;2022-10-22T02:46:09;87534.28;;;4.16;53.93
11678;BME280;5895;41.950;24.372;2022-10-22T02:48:36;87535.06;;;4.16;52.81
11678;BME280;5895;41.950;24.372;2022-10-22T02:51:04;87534.69;;;4.19;52.80
11678;BME280;5895;41.950;24.372;2022-10-22T02:53:31;87536.75;;;4.24;52.86
11678;BME280;5895;41.950;24.372;2022-10-22T02:55:58;87529.66;;;4.26;52.71
11678;BME280;5895;41.950;24.372;2022-10-22T02:58:25;87535.28;;;4.30;52.99
11678;BME280;5895;41.950;24.372;2022-10-22T03:00:52;87533.97;;;4.34;52.10
11678;BME280;5895;41.950;24.372;2022-10-22T03:03:21;87522.69;;;4.35;52.89
11678;BME280;5895;41.950;24.372;2022-10-22T03:05:49;87534.22;;;4.39;52.18
11678;BME280;5895;41.950;24.372;2022-10-22T03:08:16;87531.03;;;4.37;52.20
11678;BME280;5895;41.950;24.372;2022-10-22T03:10:44;87524.75;;;4.39;51.70
11678;BME280;5895;41.950;24.372;2022-10-22T03:13:11;87530.31;;;4.43;52.06
11678;BME280;5895;41.950;24.372;2022-10-22T03:15:38;87534.34;;;4.45;51.51
11678;BME280;5895;41.950;24.372;2022-10-22T03:18:05;87539.28;;;4.47;51.79
11678;BME280;5895;41.950;24.372;2022-10-22T03:20:34;87529.38;;;4.44;52.57
11678;BME280;5895;41.950;24.372;2022-10-22T03:23:01;87532.66;;;4.38;51.98
11678;BME280;5895;41.950;24.372;2022-10-22T03:25:29;87526.06;;;4.35;52.36
11678;BME280;5895;41.950;24.372;2022-10-22T03:28:02;87527.50;;;4.38;53.25
11678;BME280;5895;41.950;24.372;2022-10-22T03:30:30;87527.84;;;4.35;52.06
11678;BME280;5895;41.950;24.372;2022-10-22T03:32:57;87529.50;;;4.28;51.90
11678;BME280;5895;41.950;24.372;2022-10-22T03:35:24;87527.66;;;4.21;52.39
11678;BME280;5895;41.950;24.372;2022-10-22T03:37:53;87529.13;;;4.16;52.93
11678;BME280;5895;41.950;24.372;2022-10-22T03:40:21;87522.13;;;4.10;52.30
11678;BME280;5895;41.950;24.372;2022-10-22T03:42:48;87519.56;;;4.10;52.58
11678;BME280;5895;41.950;24.372;2022-10-22T03:45:15;87518.13;;;4.07;52.55
11678;BME280;5895;41.950;24.372;2022-10-22T03:47:43;87513.50;;;4.03;52.68
11678;BME280;5895;41.950;24.372;2022-10-22T03:50:10;87516.69;;;4.05;52.41
11678;BME280;5895;41.950;24.372;2022-10-22T03:52:38;87513.16;;;4.06;52.53
11678;BME280;5895;41.950;24.372;2022-10-22T03:55:08;87521.03;;;4.04;52.46
11678;BME280;5895;41.950;24.372;2022-10-22T03:57:35;87521.38;;;4.01;52.14
11678;BME280;5895;41.950;24.372;2022-10-22T04:00:04;87517.81;;;4.02;52.35
11678;BME280;5895;41.950;24.372;2022-10-22T04:02:32;87511.72;;;4.03;52.19
11678;BME280;5895;41.950;24.372;2022-10-22T04:04:59;87518.47;;;4.04;52.72
11678;BME280;5895;41.950;24.372;2022-10-22T04:07:26;87518.28;;;4.06;52.08
11678;BME280;5895;41.950;24.372;2022-10-22T04:09:53;87523.88;;;4.09;52.44
11678;BME280;5895;41.950;24.372;2022-10-22T04:12:22;87508.47;;;4.09;52.46
11678;BME280;5895;41.950;24.372;2022-10-22T04:14:49;87512.00;;;4.08;52.02
11678;BME280;5895;41.950;24.372;2022-10-22T04:17:16;87523.06;;;4.09;51.97
11678;BME280;5895;41.950;24.372;2022-10-22T04:19:43;87524.50;;;4.11;51.61
11678;BME280;5895;41.950;24.372;2022-10-22T04:22:10;87519.56;;;4.10;52.00
11678;BME280;5895;41.950;24.372;2022-10-22T04:24:37;87519.19;;;4.13;51.98
11678;BME280;5895;41.950;24.372;2022-10-22T04:27:04;87517.09;;;4.16;51.90
11678;BME280;5895;41.950;24.372;2022-10-22T04:29:33;87522.22;;;4.16;52.06
11678;BME280;5895;41.950;24.372;2022-10-22T04:32:00;87517.69;;;4.18;51.55
11678;BME280;5895;41.950;24.372;2022-10-22T04:34:27;87521.25;;;4.17;51.27
11678;BME280;5895;41.950;24.372;2022-10-22T04:36:54;87518.06;;;4.15;51.16
11678;BME280;5895;41.950;24.372;2022-10-22T04:39:22;87519.81;;;4.15;51.45
11678;BME280;5895;41.950;24.372;2022-10-22T04:41:49;87525.91;;;4.14;51.66
11678;BME280;5895;41.950;24.372;2022-10-22T04:44:16;87531.69;;;4.16;51.56
11678;BME280;5895;41.950;24.372;2022-10-22T04:46:45;87523.53;;;4.12;52.03
11678;BME280;5895;41.950;24.372;2022-10-22T04:49:12;87520.97;;;4.12;51.49
11678;BME280;5895;41.950;24.372;2022-10-22T04:51:39;87521.56;;;4.14;51.47
11678;BME280;5895;41.950;24.372;2022-10-22T04:54:06;87525.41;;;4.18;51.12
11678;BME280;5895;41.950;24.372;2022-10-22T04:56:33;87528.59;;;4.20;51.34
11678;BME280;5895;41.950;24.372;2022-10-22T04:59:03;87530.22;;;4.21;51.29
11678;BME280;5895;41.950;24.372;2022-10-22T05:01:32;87520.09;;;4.20;51.46
11678;BME280;5895;41.950;24.372;2022-10-22T05:04:03;87528.44;;;4.22;52.39
11678;BME280;5895;41.950;24.372;2022-10-22T05:06:32;87522.66;;;4.20;51.45
11678;BME280;5895;41.950;24.372;2022-10-22T05:09:02;87531.16;;;4.20;51.42
11678;BME280;5895;41.950;24.372;2022-10-22T05:11:32;87527.78;;;4.20;51.40
11678;BME280;5895;41.950;24.372;2022-10-22T05:14:01;87527.66;;;4.21;51.40
11678;BME280;5895;41.950;24.372;2022-10-22T05:16:29;87520.56;;;4.23;50.85
11678;BME280;5895;41.950;24.372;2022-10-22T05:18:57;87522.16;;;4.24;51.08
11678;BME280;5895;41.950;24.372;2022-10-22T05:21:26;87528.88;;;4.25;50.93
11678;BME280;5895;41.950;24.372;2022-10-22T05:23:54;87524.19;;;4.29;50.70
11678;BME280;5895;41.950;24.372;2022-10-22T05:26:22;87525.59;;;4.32;51.03
11678;BME280;5895;41.950;24.372;2022-10-22T05:28:49;87523.03;;;4.32;50.87
11678;BME280;5895;41.950;24.372;2022-10-22T05:31:17;87523.88;;;4.32;50.81
11678;BME280;5895;41.950;24.372;2022-10-22T05:33:45;87528.81;;;4.34;50.60
11678;BME280;5895;41.950;24.372;2022-10-22T05:36:14;87526.69;;;4.37;50.65
11678;BME280;5895;41.950;24.372;2022-10-22T05:38:44;87529.09;;;4.39;50.92
11678;BME280;5895;41.950;24.372;2022-10-22T05:41:14;87528.91;;;4.40;50.84
11678;BME280;5895;41.950;24.372;2022-10-22T05:43:41;87534.34;;;4.45;50.96
11678;BME280;5895;41.950;24.372;2022-10-22T05:46:10;87526.44;;;4.47;50.87
11678;BME280;5895;41.950;24.372;2022-10-22T05:48:38;87525.75;;;4.53;50.28
11678;BME280;5895;41.950;24.372;2022-10-22T05:51:07;87531.16;;;4.58;50.40
11678;BME280;5895;41.950;24.372;2022-10-22T05:53:36;87536.56;;;4.63;49.86
11678;BME280;5895;41.950;24.372;2022-10-22T05:56:07;87531.53;;;4.70;51.27
11678;BME280;5895;41.950;24.372;2022-10-22T05:58:35;87526.22;;;4.71;50.32
11678;BME280;5895;41.950;24.372;2022-10-22T06:01:03;87520.38;;;4.77;50.30
11678;BME280;5895;41.950;24.372;2022-10-22T06:03:31;87527.38;;;4.84;50.09
11678;BME280;5895;41.950;24.372;2022-10-22T06:06:00;87526.50;;;4.91;50.12
11678;BME280;5895;41.950;24.372;2022-10-22T06:08:28;87535.88;;;4.99;49.57
11678;BME280;5895;41.950;24.372;2022-10-22T06:10:56;87527.13;;;5.08;49.46
11678;BME280;5895;41.950;24.372;2022-10-22T06:13:24;87525.06;;;5.18;49.23
11678;BME280;5895;41.950;24.372;2022-10-22T06:15:51;87527.19;;;5.29;48.70
11678;BME280;5895;41.950;24.372;2022-10-22T06:18:19;87530.56;;;5.45;48.38
11678;BME280;5895;41.950;24.372;2022-10-22T06:20:46;87523.25;;;5.63;47.73
11678;BME280;5895;41.950;24.372;2022-10-22T06:23:13;87527.78;;;5.82;47.99
11678;BME280;5895;41.950;24.372;2022-10-22T06:25:41;87518.88;;;6.00;47.82
11678;BME280;5895;41.950;24.372;2022-10-22T06:28:09;87514.13;;;6.18;46.94
11678;BME280;5895;41.950;24.372;2022-10-22T06:30:38;87517.06;;;6.36;47.17
11678;BME280;5895;41.950;24.372;2022-10-22T06:33:05;87513.22;;;6.54;46.70
11678;BME280;5895;41.950;24.372;2022-10-22T06:35:32;87514.94;;;6.68;46.75
11678;BME280;5895;41.950;24.372;2022-10-22T06:38:00;87510.84;;;6.80;46.91
11678;BME280;5895;41.950;24.372;2022-10-22T06:40:27;87511.91;;;6.93;47.91
11678;BME280;5895;41.950;24.372;2022-10-22T06:42:54;87508.41;;;7.07;48.88
11678;BME280;5895;41.950;24.372;2022-10-22T06:45:21;87503.59;;;7.25;48.42
11678;BME280;5895;41.950;24.372;2022-10-22T06:47:49;87499.75;;;7.56;47.90
11678;BME280;5895;41.950;24.372;2022-10-22T06:50:16;87497.47;;;7.81;46.80
11678;BME280;5895;41.950;24.372;2022-10-22T06:52:44;87495.56;;;8.09;46.22
11678;BME280;5895;41.950;24.372;2022-10-22T06:55:11;87493.84;;;8.36;44.83
11678;BME280;5895;41.950;24.372;2022-10-22T06:57:38;87506.41;;;8.66;43.73
11678;BME280;5895;41.950;24.372;2022-10-22T07:00:07;87503.19;;;8.90;43.71
11678;BME280;5895;41.950;24.372;2022-10-22T07:02:34;87509.56;;;9.21;43.04
11678;BME280;5895;41.950;24.372;2022-10-22T07:05:04;87512.25;;;9.52;42.05
11678;BME280;5895;41.950;24.372;2022-10-22T07:07:31;87508.59;;;9.80;41.94
11678;BME280;5895;41.950;24.372;2022-10-22T07:09:58;87505.31;;;10.04;40.83
11678;BME280;5895;41.950;24.372;2022-10-22T07:12:25;87505.16;;;10.38;40.26
11678;BME280;5895;41.950;24.372;2022-10-22T07:14:52;87503.81;;;10.67;40.54
11678;BME280;5895;41.950;24.372;2022-10-22T07:17:19;87492.06;;;10.89;40.23
11678;BME280;5895;41.950;24.372;2022-10-22T07:19:46;87492.13;;;11.07;39.54
11678;BME280;5895;41.950;24.372;2022-10-22T07:22:15;87502.53;;;11.26;39.77
11678;BME280;5895;41.950;24.372;2022-10-22T07:24:42;87504.16;;;11.45;39.97
11678;BME280;5895;41.950;24.372;2022-10-22T07:27:09;87508.22;;;11.59;39.75
11678;BME280;5895;41.950;24.372;2022-10-22T07:29:36;87505.22;;;11.81;39.20
11678;BME280;5895;41.950;24.372;2022-10-22T07:32:04;87507.34;;;11.90;39.14
11678;BME280;5895;41.950;24.372;2022-10-22T07:34:31;87509.84;;;11.97;38.47
11678;BME280;5895;41.950;24.372;2022-10-22T07:36:58;87503.34;;;12.06;39.27
11678;BME280;5895;41.950;24.372;2022-10-22T07:39:26;87507.69;;;12.12;37.13
11678;BME280;5895;41.950;24.372;2022-10-22T07:41:54;87509.66;;;12.29;39.14
11678;BME280;5895;41.950;24.372;2022-10-22T07:44:21;87502.00;;;12.52;38.76
11678;BME280;5895;41.950;24.372;2022-10-22T07:46:48;87498.88;;;12.74;37.83
11678;BME280;5895;41.950;24.372;2022-10-22T07:49:15;87504.59;;;12.94;38.49
11678;BME280;5895;41.950;24.372;2022-10-22T07:51:42;87502.25;;;13.16;38.29
11678;BME280;5895;41.950;24.372;2022-10-22T07:54:09;87507.22;;;13.36;37.49
11678;BME280;5895;41.950;24.372;2022-10-22T07:56:38;87506.06;;;13.55;37.59
11678;BME280;5895;41.950;24.372;2022-10-22T07:59:05;87500.97;;;13.72;38.10
11678;BME280;5895;41.950;24.372;2022-10-22T08:01:32;87499.50;;;13.88;37.53
11678;BME280;5895;41.950;24.372;2022-10-22T08:03:59;87502.44;;;14.03;37.38
11678;BME280;5895;41.950;24.372;2022-10-22T08:06:26;87499.78;;;14.15;36.11
11678;BME280;5895;41.950;24.372;2022-10-22T08:08:53;87503.16;;;14.27;36.81
11678;BME280;5895;41.950;24.372;2022-10-22T08:11:20;87506.09;;;14.42;36.90
11678;BME280;5895;41.950;24.372;2022-10-22T08:13:49;87495.75;;;14.59;34.45
11678;BME280;5895;41.950;24.372;2022-10-22T08:16:16;87507.66;;;14.84;35.59
11678;BME280;5895;41.950;24.372;2022-10-22T08:18:43;87509.13;;;15.08;35.23
11678;BME280;5895;41.950;24.372;2022-10-22T08:21:11;87507.91;;;15.27;35.24
11678;BME280;5895;41.950;24.372;2022-10-22T08:23:39;87501.31;;;15.42;34.90
11678;BME280;5895;41.950;24.372;2022-10-22T08:26:06;87510.91;;;15.53;34.52
11678;BME280;5895;41.950;24.372;2022-10-22T08:28:33;87508.25;;;15.65;34.68
11678;BME280;5895;41.950;24.372;2022-10-22T08:31:03;87510.78;;;15.76;33.11
11678;BME280;5895;41.950;24.372;2022-10-22T08:33:30;87511.97;;;15.85;35.16
11678;BME280;5895;41.950;24.372;2022-10-22T08:35:57;87510.53;;;15.95;34.78
11678;BME280;5895;41.950;24.372;2022-10-22T08:38:24;87506.00;;;16.07;35.12
11678;BME280;5895;41.950;24.372;2022-10-22T08:40:53;87505.34;;;16.17;33.63
11678;BME280;5895;41.950;24.372;2022-10-22T08:43:49;87504.22;;;16.29;28.05
11678;BME280;5895;41.950;24.372;2022-10-22T08:46:32;87514.03;;;16.39;28.57
11678;BME280;5895;41.950;24.372;2022-10-22T08:49:06;87511.03;;;16.52;33.40
11678;BME280;5895;41.950;24.372;2022-10-22T08:51:36;87510.66;;;16.65;33.75
11678;BME280;5895;41.950;24.372;2022-10-22T08:54:13;87512.97;;;16.79;28.92
11678;BME280;5895;41.950;24.372;2022-10-22T08:56:45;87499.84;;;17.01;32.58
11678;BME280;5895;41.950;24.372;2022-10-22T08:59:16;87500.91;;;17.32;31.21
11678;BME280;5895;41.950;24.372;2022-10-22T09:01:48;87508.50;;;17.60;30.77
11678;BME280;5895;41.950;24.372;2022-10-22T09:04:20;87506.34;;;17.84;32.84
11678;BME280;5895;41.950;24.372;2022-10-22T09:06:51;87498.63;;;18.05;33.74
11678;BME280;5895;41.950;24.372;2022-10-22T09:09:19;87499.00;;;18.23;33.67
11678;BME280;5895;41.950;24.372;2022-10-22T09:11:48;87500.44;;;18.41;32.29
11678;BME280;5895;41.950;24.372;2022-10-22T09:14:17;87501.13;;;18.69;32.30
11678;BME280;5895;41.950;24.372;2022-10-22T09:17:11;87494.91;;;18.95;24.74
11678;BME280;5895;41.950;24.372;2022-10-22T09:19:47;87496.28;;;19.18;29.15
11678;BME280;5895;41.950;24.372;2022-10-22T09:22:26;87490.28;;;19.38;26.62
11678;BME280;5895;41.950;24.372;2022-10-22T09:24:58;87486.69;;;19.60;32.82
11678;BME280;5895;41.950;24.372;2022-10-22T09:27:29;87495.13;;;19.92;33.33
11678;BME280;5895;41.950;24.372;2022-10-22T09:29:57;87496.66;;;20.24;33.55
11678;BME280;5895;41.950;24.372;2022-10-22T09:32:26;87499.81;;;20.46;29.25
11678;BME280;5895;41.950;24.372;2022-10-22T09:34:56;87497.16;;;20.62;32.20
11678;BME280;5895;41.950;24.372;2022-10-22T09:37:26;87495.50;;;20.81;30.05
11678;BME280;5895;41.950;24.372;2022-10-22T09:39:54;87490.69;;;20.98;32.51
11678;BME280;5895;41.950;24.372;2022-10-22T09:42:23;87494.03;;;21.24;32.39
11678;BME280;5895;41.950;24.372;2022-10-22T09:44:52;87490.78;;;21.43;32.51
11678;BME280;5895;41.950;24.372;2022-10-22T09:47:32;87489.59;;;21.69;28.09
11678;BME280;5895;41.950;24.372;2022-10-22T09:50:27;87492.16;;;22.18;26.53
11678;BME280;5895;41.950;24.372;2022-10-22T09:53:00;87489.97;;;22.55;30.62
11678;BME280;5895;41.950;24.372;2022-10-22T09:55:30;87484.16;;;22.82;32.17
11678;BME280;5895;41.950;24.372;2022-10-22T09:57:59;87480.09;;;22.65;30.99
11678;BME280;5895;41.950;24.372;2022-10-22T10:00:28;87481.41;;;22.68;32.23
11678;BME280;5895;41.950;24.372;2022-10-22T10:02:58;87478.97;;;22.71;28.68
11678;BME280;5895;41.950;24.372;2022-10-22T10:05:28;87474.16;;;22.79;30.93
11678;BME280;5895;41.950;24.372;2022-10-22T10:07:56;87478.97;;;22.71;32.02
11678;BME280;5895;41.950;24.372;2022-10-22T10:10:31;87472.25;;;22.55;28.30
11678;BME280;5895;41.950;24.372;2022-10-22T10:13:07;87477.22;;;22.33;29.33
11678;BME280;5895;41.950;24.372;2022-10-22T10:15:41;87470.59;;;22.01;30.03
11678;BME280;5895;41.950;24.372;2022-10-22T10:18:24;87473.44;;;21.71;24.75
11678;BME280;5895;41.950;24.372;2022-10-22T10:21:04;87472.06;;;21.44;25.49
11678;BME280;5895;41.950;24.372;2022-10-22T10:23:40;87471.09;;;21.14;28.20
11678;BME280;5895;41.950;24.372;2022-10-22T10:26:14;87472.72;;;21.10;30.47
11678;BME280;5895;41.950;24.372;2022-10-22T10:28:55;87470.53;;;21.33;26.59
11678;BME280;5895;41.950;24.372;2022-10-22T10:31:36;87463.78;;;21.56;28.79
11678;BME280;5895;41.950;24.372;2022-10-22T10:34:16;87461.25;;;21.80;26.01
11678;BME280;5895;41.950;24.372;2022-10-22T10:36:55;87462.00;;;22.20;27.67
11678;BME280;5895;41.950;24.372;2022-10-22T10:39:32;87466.91;;;22.60;28.93
11678;BME280;5895;41.950;24.372;2022-10-22T10:42:09;87469.94;;;22.73;25.57
11678;BME280;5895;41.950;24.372;2022-10-22T10:44:48;87460.94;;;23.03;27.49
11678;BME280;5895;41.950;24.372;2022-10-22T10:47:35;87463.78;;;23.06;26.16
11678;BME280;5895;41.950;24.372;2022-10-22T10:50:17;87462.41;;;23.14;26.46
11678;BME280;5895;41.950;24.372;2022-10-22T10:52:54;87459.63;;;23.24;25.73
11678;BME280;5895;41.950;24.372;2022-10-22T10:55:29;87451.63;;;23.29;29.34
11678;BME280;5895;41.950;24.372;2022-10-22T10:58:08;87450.91;;;23.61;27.75
11678;BME280;5895;41.950;24.372;2022-10-22T11:00:45;87450.88;;;23.85;28.70
11678;BME280;5895;41.950;24.372;2022-10-22T11:03:34;87449.00;;;24.18;26.67
11678;BME280;5895;41.950;24.372;2022-10-22T11:06:08;87453.03;;;24.35;29.44
11678;BME280;5895;41.950;24.372;2022-10-22T11:08:39;87446.66;;;24.36;30.40
11678;BME280;5895;41.950;24.372;2022-10-22T11:11:12;87443.91;;;24.41;31.95
11678;BME280;5895;41.950;24.372;2022-10-22T11:13:43;87438.94;;;24.53;31.40
11678;BME280;5895;41.950;24.372;2022-10-22T11:16:19;87443.16;;;24.54;28.14
11678;BME280;5895;41.950;24.372;2022-10-22T11:18:52;87446.13;;;24.52;28.21
11678;BME280;5895;41.950;24.372;2022-10-22T11:21:27;87439.44;;;24.55;27.98
11678;BME280;5895;41.950;24.372;2022-10-22T11:24:03;87443.97;;;24.68;28.29
11678;BME280;5895;41.950;24.372;2022-10-22T11:26:40;87441.03;;;24.84;28.78
11678;BME280;5895;41.950;24.372;2022-10-22T11:29:12;87430.56;;;25.06;30.58
11678;BME280;5895;41.950;24.372;2022-10-22T11:31:41;87424.94;;;25.21;31.94
11678;BME280;5895;41.950;24.372;2022-10-22T11:34:15;87428.88;;;25.38;27.20
11678;BME280;5895;41.950;24.372;2022-10-22T11:36:45;87420.38;;;25.49;30.57
11678;BME280;5895;41.950;24.372;2022-10-22T11:39:37;87413.66;;;25.52;24.63
11678;BME280;5895;41.950;24.372;2022-10-22T11:42:09;87413.50;;;25.48;28.22
11678;BME280;5895;41.950;24.372;2022-10-22T11:44:48;87423.44;;;25.43;25.96
11678;BME280;5895;41.950;24.372;2022-10-22T11:47:18;87425.50;;;25.46;28.58
11678;BME280;5895;41.950;24.372;2022-10-22T11:49:56;87423.34;;;25.34;25.60
11678;BME280;5895;41.950;24.372;2022-10-22T11:52:37;87414.50;;;25.39;25.58
11678;BME280;5895;41.950;24.372;2022-10-22T11:55:27;87411.88;;;25.61;25.03
11678;BME280;5895;41.950;24.372;2022-10-22T11:57:58;87415.81;;;25.64;28.73
11678;BME280;5895;41.950;24.372;2022-10-22T12:00:34;87424.44;;;25.69;23.86
11678;BME280;5895;41.950;24.372;2022-10-22T12:03:15;87416.00;;;25.67;24.78
11678;BME280;5895;41.950;24.372;2022-10-22T12:05:44;87417.00;;;25.71;31.14
11678;BME280;5895;41.950;24.372;2022-10-22T12:08:19;87412.06;;;25.78;25.38
11678;BME280;5895;41.950;24.372;2022-10-22T12:11:02;87412.75;;;26.06;25.86
11678;BME280;5895;41.950;24.372;2022-10-22T12:13:31;87408.69;;;26.09;31.21
11678;BME280;5895;41.950;24.372;2022-10-22T12:16:01;87402.41;;;26.27;29.58
11678;BME280;5895;41.950;24.372;2022-10-22T12:18:34;87402.97;;;26.38;28.68
11678;BME280;5895;41.950;24.372;2022-10-22T12:21:07;87403.63;;;26.66;31.12
11678;BME280;5895;41.950;24.372;2022-10-22T12:23:37;87407.00;;;26.58;27.99
11678;BME280;5895;41.950;24.372;2022-10-22T12:26:05;87403.34;;;26.45;30.38
11678;BME280;5895;41.950;24.372;2022-10-22T12:28:37;87400.00;;;26.40;25.26
11678;BME280;5895;41.950;24.372;2022-10-22T12:31:05;87402.78;;;26.34;30.47
11678;BME280;5895;41.950;24.372;2022-10-22T12:33:40;87402.25;;;26.46;30.54
11678;BME280;5895;41.950;24.372;2022-10-22T12:36:14;87402.28;;;26.32;24.00
11678;BME280;5895;41.950;24.372;2022-10-22T12:38:44;87397.16;;;26.14;27.73
11678;BME280;5895;41.950;24.372;2022-10-22T12:41:12;87401.81;;;26.08;30.49
11678;BME280;5895;41.950;24.372;2022-10-22T12:43:40;87401.00;;;25.85;30.39
11678;BME280;5895;41.950;24.372;2022-10-22T12:46:10;87394.75;;;25.67;25.92
11678;BME280;5895;41.950;24.372;2022-10-22T12:48:40;87398.97;;;25.68;29.33
11678;BME280;5895;41.950;24.372;2022-10-22T12:51:14;87399.47;;;25.70;23.87
11678;BME280;5895;41.950;24.372;2022-10-22T12:53:45;87392.81;;;25.59;27.10
11678;BME280;5895;41.950;24.372;2022-10-22T12:56:15;87395.63;;;25.63;30.36
11678;BME280;5895;41.950;24.372;2022-10-22T12:58:46;87392.81;;;25.59;28.58
11678;BME280;5895;41.950;24.372;2022-10-22T13:01:16;87395.16;;;25.61;27.85
11678;BME280;5895;41.950;24.372;2022-10-22T13:03:45;87389.44;;;25.67;29.70
11678;BME280;5895;41.950;24.372;2022-10-22T13:06:24;87390.78;;;25.78;23.57
11678;BME280;5895;41.950;24.372;2022-10-22T13:09:04;87398.44;;;25.94;25.07
11678;BME280;5895;41.950;24.372;2022-10-22T13:11:36;87392.25;;;26.07;29.87
11678;BME280;5895;41.950;24.372;2022-10-22T13:14:05;87393.00;;;26.21;30.22
11678;BME280;5895;41.950;24.372;2022-10-22T13:16:40;87390.91;;;26.41;30.35
11678;BME280;5895;41.950;24.372;2022-10-22T13:19:38;87388.84;;;26.60;25.55
11678;BME280;5895;41.950;24.372;2022-10-22T13:22:24;87400.44;;;26.64;23.66
11678;BME280;5895;41.950;24.372;2022-10-22T13:24:53;87406.53;;;26.33;29.00
11678;BME280;5895;41.950;24.372;2022-10-22T13:27:21;87392.19;;;26.21;30.42